CLX742 BGGH-BIKF
Flight info
| Callsign | CLX742 |
|---|---|
| Flight time | 1h 32m |
| Altitude | 39000 |
| Route | EVULO1A EVULO DCT DEVNU DCT GOKIK DCT GIRUG GIRUG3H |
| Aircraft | B742/H-SDFHIRWXY/L |
Departure
| Time | 2026-04-29 18:29 |
|---|---|
| Airport | Nuuk International Airport (BGGH) |
Arrival
| Time | 2026-04-29 20:01 |
|---|---|
| Airport | Keflavik International Airport (BIKF) |
| Time | Latitude | Longitude | Altitude | Speed | Heading |
|---|---|---|---|---|---|
| 2026-04-29 17:32 | 64.18829 | -51.67532 | 281 ft | 0 kts | 106° |
| 2026-04-29 18:21 | 64.18829 | -51.67534 | 280 ft | 0 kts | 106° |
| 2026-04-29 18:21 | 64.18832 | -51.67558 | 280 ft | 2 kts | 106° |
| 2026-04-29 18:22 | 64.18836 | -51.67592 | 281 ft | 2 kts | 108° |
| 2026-04-29 18:22 | 64.18843 | -51.67622 | 281 ft | 2 kts | 127° |
| 2026-04-29 18:22 | 64.18853 | -51.67647 | 281 ft | 2 kts | 141° |
| 2026-04-29 18:22 | 64.18866 | -51.67666 | 281 ft | 2 kts | 155° |
| 2026-04-29 18:23 | 64.18880 | -51.67677 | 281 ft | 2 kts | 169° |
| 2026-04-29 18:23 | 64.18895 | -51.67680 | 281 ft | 2 kts | 183° |
| 2026-04-29 18:23 | 64.18909 | -51.67675 | 281 ft | 0 kts | 197° |
| 2026-04-29 18:23 | 64.18913 | -51.67671 | 281 ft | 0 kts | 198° |
| 2026-04-29 18:25 | 64.18892 | -51.67687 | 281 ft | 8 kts | 198° |
| 2026-04-29 18:25 | 64.18793 | -51.67759 | 280 ft | 19 kts | 197° |
| 2026-04-29 18:25 | 64.18680 | -51.67840 | 280 ft | 16 kts | 197° |
| 2026-04-29 18:25 | 64.18619 | -51.67916 | 280 ft | 5 kts | 269° |
| 2026-04-29 18:26 | 64.18633 | -51.68034 | 281 ft | 11 kts | 287° |
| 2026-04-29 18:26 | 64.18647 | -51.68242 | 275 ft | 13 kts | 244° |
| 2026-04-29 18:26 | 64.18581 | -51.68306 | 274 ft | 14 kts | 199° |
| 2026-04-29 18:26 | 64.18444 | -51.68419 | 274 ft | 25 kts | 199° |
| 2026-04-29 18:27 | 64.18272 | -51.68529 | 274 ft | 19 kts | 178° |
| 2026-04-29 18:27 | 64.18175 | -51.68521 | 274 ft | 4 kts | 218° |
| 2026-04-29 18:27 | 64.18177 | -51.68588 | 274 ft | 5 kts | 308° |
| 2026-04-29 18:27 | 64.18200 | -51.68600 | 274 ft | 2 kts | 15° |
| 2026-04-29 18:28 | 64.18208 | -51.68594 | 274 ft | 0 kts | 18° |
| 2026-04-29 18:28 | 64.18452 | -51.68408 | 274 ft | 75 kts | 18° |
| 2026-04-29 18:28 | 64.19156 | -51.67882 | 286 ft | 139 kts | 18° |
| 2026-04-29 18:28 | 64.20153 | -51.67162 | 808 ft | 150 kts | 18° |
| 2026-04-29 18:29 | 64.21181 | -51.66917 | 1415 ft | 160 kts | 343° |
| 2026-04-29 18:29 | 64.21822 | -51.67819 | 1773 ft | 171 kts | 309° |
| 2026-04-29 18:29 | 64.22015 | -51.71261 | 2635 ft | 180 kts | 240° |
| 2026-04-29 18:29 | 64.21107 | -51.73049 | 3322 ft | 178 kts | 192° |
| 2026-04-29 18:30 | 64.19891 | -51.73471 | 4069 ft | 176 kts | 187° |
| 2026-04-29 18:30 | 64.18656 | -51.73919 | 4624 ft | 188 kts | 187° |
| 2026-04-29 18:30 | 64.17308 | -51.74432 | 5063 ft | 208 kts | 188° |
| 2026-04-29 18:30 | 64.15814 | -51.75015 | 5504 ft | 229 kts | 188° |
| 2026-04-29 18:31 | 64.14221 | -51.75642 | 5805 ft | 244 kts | 188° |
| 2026-04-29 18:31 | 64.12492 | -51.75442 | 6076 ft | 258 kts | 159° |
| 2026-04-29 18:31 | 64.10865 | -51.73491 | 6466 ft | 271 kts | 148° |
| 2026-04-29 18:31 | 64.09298 | -51.71286 | 7324 ft | 270 kts | 148° |
| 2026-04-29 18:32 | 64.07725 | -51.69110 | 8105 ft | 272 kts | 149° |
| 2026-04-29 18:32 | 64.04868 | -51.63733 | 9400 ft | 282 kts | 116° |
| 2026-04-29 18:32 | 64.04440 | -51.59437 | 10053 ft | 287 kts | 87° |
| 2026-04-29 18:33 | 64.04811 | -51.54822 | 10342 ft | 305 kts | 74° |
| 2026-04-29 18:33 | 64.05440 | -51.50057 | 10596 ft | 327 kts | 72° |
| 2026-04-29 18:33 | 64.06125 | -51.44910 | 10849 ft | 349 kts | 73° |
| 2026-04-29 18:33 | 64.06820 | -51.39520 | 11104 ft | 371 kts | 73° |
| 2026-04-29 18:34 | 64.07546 | -51.33761 | 11913 ft | 377 kts | 74° |
| 2026-04-29 18:34 | 64.08008 | -51.29946 | 12548 ft | 379 kts | 75° |
| 2026-04-29 18:34 | 64.08935 | -51.22160 | 13567 ft | 386 kts | 74° |
| 2026-04-29 18:34 | 64.09805 | -51.16349 | 14304 ft | 391 kts | 64° |
| 2026-04-29 18:35 | 64.11094 | -51.10953 | 15002 ft | 396 kts | 58° |
| 2026-04-29 18:35 | 64.12553 | -51.05565 | 15674 ft | 403 kts | 56° |
| 2026-04-29 18:35 | 64.14057 | -51.00091 | 16314 ft | 410 kts | 56° |
| 2026-04-29 18:35 | 64.15562 | -50.94541 | 16886 ft | 419 kts | 56° |
| 2026-04-29 18:36 | 64.17104 | -50.88766 | 17580 ft | 424 kts | 56° |
| 2026-04-29 18:36 | 64.18613 | -50.83066 | 18161 ft | 432 kts | 56° |
| 2026-04-29 18:36 | 64.20151 | -50.77223 | 18851 ft | 437 kts | 56° |
| 2026-04-29 18:36 | 64.21730 | -50.71198 | 19479 ft | 443 kts | 56° |
| 2026-04-29 18:37 | 64.23329 | -50.65089 | 20051 ft | 451 kts | 56° |
| 2026-04-29 18:37 | 64.24949 | -50.58881 | 20673 ft | 456 kts | 55° |
| 2026-04-29 18:37 | 64.26586 | -50.52593 | 21009 ft | 469 kts | 55° |
| 2026-04-29 18:37 | 64.28285 | -50.46070 | 21268 ft | 484 kts | 55° |
| 2026-04-29 18:38 | 64.30039 | -50.39319 | 21524 ft | 500 kts | 55° |
| 2026-04-29 18:38 | 64.31818 | -50.32445 | 21762 ft | 514 kts | 57° |
| 2026-04-29 18:38 | 64.33656 | -50.25170 | 22012 ft | 528 kts | 57° |
| 2026-04-29 18:38 | 64.35486 | -50.17864 | 22233 ft | 541 kts | 57° |
| 2026-04-29 18:39 | 64.37382 | -50.10180 | 22473 ft | 554 kts | 60° |
| 2026-04-29 18:39 | 64.38889 | -50.01989 | 22759 ft | 567 kts | 69° |
| 2026-04-29 18:39 | 64.39969 | -49.93179 | 23571 ft | 566 kts | 75° |
| 2026-04-29 18:39 | 64.40798 | -49.84391 | 24215 ft | 568 kts | 77° |
| 2026-04-29 18:40 | 64.41550 | -49.75442 | 24965 ft | 566 kts | 78° |
| 2026-04-29 18:40 | 64.42283 | -49.66586 | 25486 ft | 569 kts | 77° |
| 2026-04-29 18:40 | 64.43055 | -49.57527 | 25939 ft | 573 kts | 77° |
| 2026-04-29 18:40 | 64.43843 | -49.48526 | 26699 ft | 569 kts | 76° |
| 2026-04-29 18:41 | 64.46215 | -49.21550 | 28072 ft | 577 kts | 77° |
| 2026-04-29 18:41 | 64.46976 | -49.12510 | 28752 ft | 574 kts | 77° |
| 2026-04-29 18:42 | 64.47737 | -49.03500 | 29108 ft | 577 kts | 76° |
| 2026-04-29 18:42 | 64.48515 | -48.94406 | 29564 ft | 578 kts | 76° |
| 2026-04-29 18:42 | 64.49303 | -48.85216 | 30080 ft | 577 kts | 76° |
| 2026-04-29 18:42 | 64.50074 | -48.76232 | 30352 ft | 582 kts | 76° |
| 2026-04-29 18:43 | 64.50877 | -48.66846 | 30046 ft | 601 kts | 76° |
| 2026-04-29 18:43 | 64.51685 | -48.57326 | 29810 ft | 609 kts | 76° |
| 2026-04-29 18:43 | 64.53273 | -48.38208 | 29697 ft | 600 kts | 76° |
| 2026-04-29 18:44 | 64.54775 | -48.19267 | 29636 ft | 604 kts | 77° |
| 2026-04-29 18:44 | 64.56244 | -48.00154 | 29610 ft | 601 kts | 77° |
| 2026-04-29 18:45 | 64.57732 | -47.81113 | 29603 ft | 597 kts | 77° |
| 2026-04-29 18:45 | 64.59205 | -47.62228 | 29588 ft | 597 kts | 77° |
| 2026-04-29 18:46 | 64.60661 | -47.43212 | 29584 ft | 597 kts | 77° |
| 2026-04-29 18:46 | 64.62059 | -47.24258 | 29581 ft | 596 kts | 78° |
| 2026-04-29 18:47 | 64.63380 | -47.05270 | 29583 ft | 597 kts | 78° |
| 2026-04-29 18:47 | 64.64719 | -46.86337 | 29588 ft | 594 kts | 77° |
| 2026-04-29 18:48 | 64.66067 | -46.67355 | 29590 ft | 593 kts | 78° |
| 2026-04-29 18:48 | 64.67379 | -46.48565 | 29976 ft | 586 kts | 77° |
| 2026-04-29 18:49 | 64.68012 | -46.39325 | 30681 ft | 573 kts | 77° |
| 2026-04-29 18:49 | 64.68620 | -46.30267 | 31419 ft | 558 kts | 78° |
| 2026-04-29 18:49 | 64.69179 | -46.21468 | 31830 ft | 553 kts | 79° |
| 2026-04-29 18:49 | 64.69730 | -46.12640 | 32100 ft | 552 kts | 79° |
| 2026-04-29 18:50 | 64.70290 | -46.03779 | 32360 ft | 552 kts | 78° |
| 2026-04-29 18:50 | 64.70860 | -45.94885 | 32504 ft | 555 kts | 78° |
| 2026-04-29 18:50 | 64.72015 | -45.76916 | 32557 ft | 567 kts | 78° |
| 2026-04-29 18:51 | 64.73174 | -45.58652 | 32562 ft | 577 kts | 78° |
| 2026-04-29 18:51 | 64.74329 | -45.40017 | 32541 ft | 581 kts | 78° |
| 2026-04-29 18:52 | 64.74893 | -45.30705 | 32367 ft | 585 kts | 80° |
| 2026-04-29 18:52 | 64.75427 | -45.21247 | 32168 ft | 583 kts | 80° |
| 2026-04-29 18:52 | 64.75936 | -45.12007 | 31981 ft | 580 kts | 80° |
| 2026-04-29 18:52 | 64.76458 | -45.02646 | 31793 ft | 581 kts | 80° |
| 2026-04-29 18:53 | 64.76991 | -44.93227 | 31621 ft | 581 kts | 79° |
| 2026-04-29 18:53 | 64.77525 | -44.83901 | 31446 ft | 581 kts | 79° |
| 2026-04-29 18:53 | 64.78056 | -44.74581 | 31120 ft | 585 kts | 79° |
| 2026-04-29 18:53 | 64.78592 | -44.65135 | 30749 ft | 586 kts | 79° |
| 2026-04-29 18:54 | 64.79113 | -44.55808 | 30436 ft | 582 kts | 79° |
| 2026-04-29 18:54 | 64.79635 | -44.46352 | 30124 ft | 581 kts | 79° |
| 2026-04-29 18:54 | 64.80138 | -44.37123 | 29821 ft | 579 kts | 79° |
| 2026-04-29 18:54 | 64.80633 | -44.27685 | 29623 ft | 575 kts | 81° |
| 2026-04-29 18:55 | 64.81530 | -44.09246 | 29536 ft | 576 kts | 81° |
| 2026-04-29 18:55 | 64.82451 | -43.90689 | 29539 ft | 574 kts | 80° |
| 2026-04-29 18:56 | 64.83384 | -43.72074 | 29543 ft | 576 kts | 80° |
| 2026-04-29 18:56 | 64.84297 | -43.53514 | 29548 ft | 574 kts | 80° |
| 2026-04-29 18:57 | 64.85184 | -43.34957 | 29546 ft | 574 kts | 81° |
| 2026-04-29 18:57 | 64.85981 | -43.16502 | 29540 ft | 575 kts | 82° |
| 2026-04-29 18:58 | 64.86762 | -42.97935 | 29544 ft | 574 kts | 82° |
| 2026-04-29 18:58 | 64.87565 | -42.79364 | 29555 ft | 573 kts | 81° |
| 2026-04-29 18:59 | 64.88360 | -42.60807 | 29544 ft | 573 kts | 81° |
| 2026-04-29 18:59 | 64.89130 | -42.42237 | 29542 ft | 571 kts | 81° |
| 2026-04-29 19:00 | 64.89848 | -42.23662 | 29524 ft | 571 kts | 83° |
| 2026-04-29 19:00 | 64.90493 | -42.05137 | 29538 ft | 572 kts | 82° |
| 2026-04-29 19:01 | 64.91165 | -41.86539 | 29537 ft | 571 kts | 82° |
| 2026-04-29 19:01 | 64.91843 | -41.67876 | 29585 ft | 575 kts | 82° |
| 2026-04-29 19:02 | 64.92393 | -41.52327 | 29601 ft | 574 kts | 82° |
| 2026-04-29 19:02 | 64.93125 | -41.30637 | 29627 ft | 571 kts | 83° |
| 2026-04-29 19:03 | 64.93657 | -41.11987 | 29636 ft | 575 kts | 83° |
| 2026-04-29 19:03 | 64.94196 | -40.93271 | 29721 ft | 570 kts | 83° |
| 2026-04-29 19:04 | 64.94742 | -40.74856 | 29761 ft | 570 kts | 83° |
| 2026-04-29 19:04 | 64.95281 | -40.56232 | 29754 ft | 569 kts | 83° |
| 2026-04-29 19:05 | 64.95792 | -40.37737 | 29743 ft | 568 kts | 83° |
| 2026-04-29 19:05 | 64.96230 | -40.19223 | 29738 ft | 567 kts | 85° |
| 2026-04-29 19:06 | 64.96629 | -40.00697 | 29730 ft | 567 kts | 84° |
| 2026-04-29 19:07 | 64.97258 | -39.73132 | 29665 ft | 564 kts | 84° |
| 2026-04-29 19:07 | 64.97665 | -39.54695 | 29666 ft | 562 kts | 84° |
| 2026-04-29 19:08 | 64.98047 | -39.36294 | 29654 ft | 564 kts | 84° |
| 2026-04-29 19:08 | 64.98348 | -39.18024 | 29649 ft | 565 kts | 86° |
| 2026-04-29 19:09 | 64.98624 | -38.99503 | 29641 ft | 564 kts | 85° |
| 2026-04-29 19:09 | 64.98921 | -38.81127 | 29653 ft | 563 kts | 85° |
| 2026-04-29 19:10 | 64.99212 | -38.62767 | 29650 ft | 561 kts | 85° |
| 2026-04-29 19:10 | 64.99480 | -38.44440 | 29642 ft | 560 kts | 85° |
| 2026-04-29 19:10 | 64.99606 | -38.35266 | 29748 ft | 561 kts | 85° |
| 2026-04-29 19:11 | 64.99706 | -38.26202 | 29976 ft | 561 kts | 87° |
| 2026-04-29 19:11 | 64.99779 | -38.17033 | 30370 ft | 558 kts | 87° |
| 2026-04-29 19:11 | 64.99851 | -38.07919 | 30733 ft | 556 kts | 87° |
| 2026-04-29 19:11 | 64.99932 | -37.98797 | 31096 ft | 554 kts | 87° |
| 2026-04-29 19:12 | 65.00017 | -37.89835 | 31480 ft | 553 kts | 87° |
| 2026-04-29 19:12 | 65.00105 | -37.80679 | 31871 ft | 551 kts | 87° |
| 2026-04-29 19:12 | 65.00189 | -37.71678 | 32247 ft | 549 kts | 87° |
| 2026-04-29 19:12 | 65.00243 | -37.65760 | 32492 ft | 548 kts | 87° |
| 2026-04-29 19:13 | 65.00343 | -37.53802 | 32980 ft | 545 kts | 87° |
| 2026-04-29 19:13 | 65.00410 | -37.44908 | 33365 ft | 543 kts | 88° |
| 2026-04-29 19:13 | 65.00472 | -37.36049 | 33795 ft | 540 kts | 88° |
| 2026-04-29 19:13 | 65.00513 | -37.27341 | 34218 ft | 536 kts | 89° |
| 2026-04-29 19:14 | 65.00525 | -37.18576 | 34649 ft | 532 kts | 89° |
| 2026-04-29 19:14 | 65.00535 | -37.09940 | 35074 ft | 528 kts | 89° |
| 2026-04-29 19:14 | 65.00552 | -37.01365 | 35502 ft | 523 kts | 89° |
| 2026-04-29 19:14 | 65.00576 | -36.92771 | 35932 ft | 518 kts | 89° |
| 2026-04-29 19:15 | 65.00601 | -36.84360 | 36239 ft | 516 kts | 89° |
| 2026-04-29 19:15 | 65.00625 | -36.75894 | 36354 ft | 519 kts | 89° |
| 2026-04-29 19:15 | 65.00645 | -36.67424 | 36520 ft | 520 kts | 89° |
| 2026-04-29 19:15 | 65.00661 | -36.58950 | 36725 ft | 520 kts | 89° |
| 2026-04-29 19:16 | 65.00671 | -36.50452 | 36937 ft | 519 kts | 89° |
| 2026-04-29 19:16 | 65.00678 | -36.41940 | 37133 ft | 519 kts | 89° |
| 2026-04-29 19:16 | 65.00678 | -36.33419 | 37290 ft | 520 kts | 90° |
| 2026-04-29 19:16 | 65.00648 | -36.25010 | 37457 ft | 520 kts | 91° |
| 2026-04-29 19:17 | 65.00600 | -36.16447 | 37657 ft | 520 kts | 91° |
| 2026-04-29 19:17 | 65.00555 | -36.07941 | 37891 ft | 519 kts | 90° |
| 2026-04-29 19:17 | 65.00517 | -35.99474 | 38096 ft | 519 kts | 90° |
| 2026-04-29 19:17 | 65.00466 | -35.90987 | 38292 ft | 518 kts | 91° |
| 2026-04-29 19:18 | 65.00370 | -35.82561 | 38430 ft | 519 kts | 92° |
| 2026-04-29 19:18 | 65.00253 | -35.76827 | 38567 ft | 518 kts | 93° |
| 2026-04-29 19:18 | 64.99947 | -35.65585 | 38702 ft | 520 kts | 94° |
| 2026-04-29 19:19 | 64.99435 | -35.48467 | 38638 ft | 529 kts | 94° |
| 2026-04-29 19:19 | 64.98914 | -35.31065 | 38633 ft | 535 kts | 95° |
| 2026-04-29 19:20 | 64.98313 | -35.13499 | 38631 ft | 541 kts | 95° |
| 2026-04-29 19:20 | 64.97722 | -34.95836 | 38637 ft | 544 kts | 95° |
| 2026-04-29 19:21 | 64.97140 | -34.78018 | 38646 ft | 544 kts | 95° |
| 2026-04-29 19:21 | 64.96549 | -34.60302 | 38645 ft | 544 kts | 95° |
| 2026-04-29 19:22 | 64.95937 | -34.42576 | 38649 ft | 543 kts | 95° |
| 2026-04-29 19:22 | 64.95288 | -34.25138 | 38655 ft | 543 kts | 96° |
| 2026-04-29 19:23 | 64.94565 | -34.07589 | 38654 ft | 543 kts | 96° |
| 2026-04-29 19:23 | 64.93864 | -33.90035 | 38658 ft | 543 kts | 96° |
| 2026-04-29 19:24 | 64.93167 | -33.72420 | 38659 ft | 543 kts | 96° |
| 2026-04-29 19:24 | 64.92448 | -33.54663 | 38660 ft | 542 kts | 96° |
| 2026-04-29 19:25 | 64.91712 | -33.37049 | 38658 ft | 543 kts | 96° |
| 2026-04-29 19:25 | 64.90909 | -33.19540 | 38664 ft | 542 kts | 97° |
| 2026-04-29 19:26 | 64.90067 | -33.01927 | 38677 ft | 542 kts | 97° |
| 2026-04-29 19:26 | 64.89253 | -32.84396 | 38685 ft | 542 kts | 97° |
| 2026-04-29 19:27 | 64.88432 | -32.66776 | 38680 ft | 542 kts | 97° |
| 2026-04-29 19:27 | 64.80765 | -31.19531 | 38700 ft | 541 kts | 101° |
| 2026-04-29 19:28 | 64.79565 | -31.02291 | 38707 ft | 540 kts | 101° |
| 2026-04-29 19:28 | 64.78449 | -30.84981 | 38707 ft | 540 kts | 100° |
| 2026-04-29 19:29 | 64.77384 | -30.67579 | 38708 ft | 540 kts | 99° |
| 2026-04-29 19:29 | 64.76321 | -30.50260 | 38707 ft | 540 kts | 99° |
| 2026-04-29 19:30 | 64.75234 | -30.32950 | 38707 ft | 539 kts | 101° |
| 2026-04-29 19:30 | 64.74062 | -30.15725 | 38709 ft | 539 kts | 101° |
| 2026-04-29 19:31 | 64.72881 | -29.98431 | 38714 ft | 539 kts | 101° |
| 2026-04-29 19:31 | 64.71725 | -29.81233 | 38713 ft | 539 kts | 101° |
| 2026-04-29 19:32 | 64.70556 | -29.63972 | 38723 ft | 539 kts | 101° |
| 2026-04-29 19:32 | 64.69373 | -29.46807 | 38726 ft | 539 kts | 101° |
| 2026-04-29 19:33 | 64.68156 | -29.29582 | 38735 ft | 539 kts | 102° |
| 2026-04-29 19:33 | 64.66853 | -29.12410 | 38733 ft | 539 kts | 103° |
| 2026-04-29 19:34 | 64.65570 | -28.95330 | 38734 ft | 539 kts | 102° |
| 2026-04-29 19:34 | 64.64284 | -28.78029 | 38740 ft | 539 kts | 102° |
| 2026-04-29 19:35 | 64.63000 | -28.60901 | 38743 ft | 539 kts | 102° |
| 2026-04-29 19:35 | 64.61698 | -28.43839 | 38741 ft | 539 kts | 102° |
| 2026-04-29 19:36 | 64.60349 | -28.26701 | 38744 ft | 538 kts | 104° |
| 2026-04-29 19:36 | 64.58937 | -28.09744 | 38754 ft | 537 kts | 104° |
| 2026-04-29 19:37 | 64.57550 | -27.92837 | 38758 ft | 537 kts | 103° |
| 2026-04-29 19:37 | 64.56153 | -27.75702 | 38766 ft | 537 kts | 103° |
| 2026-04-29 19:38 | 64.54758 | -27.58788 | 38770 ft | 537 kts | 103° |
| 2026-04-29 19:38 | 64.53339 | -27.41840 | 38775 ft | 538 kts | 104° |
| 2026-04-29 19:39 | 64.51872 | -27.24901 | 38770 ft | 537 kts | 105° |
| 2026-04-29 19:39 | 64.50252 | -27.08123 | 38761 ft | 533 kts | 111° |
| 2026-04-29 19:40 | 64.47772 | -26.92081 | 38761 ft | 532 kts | 114° |
| 2026-04-29 19:40 | 64.45042 | -26.75818 | 38764 ft | 531 kts | 115° |
| 2026-04-29 19:41 | 64.37946 | -26.34822 | 38185 ft | 536 kts | 117° |
| 2026-04-29 19:41 | 64.36544 | -26.26997 | 37480 ft | 531 kts | 117° |
| 2026-04-29 19:41 | 64.35129 | -26.19242 | 36826 ft | 526 kts | 118° |
| 2026-04-29 19:41 | 64.33723 | -26.11512 | 36175 ft | 523 kts | 118° |
| 2026-04-29 19:42 | 64.32340 | -26.03851 | 35519 ft | 520 kts | 118° |
| 2026-04-29 19:42 | 64.31419 | -25.98737 | 35077 ft | 518 kts | 118° |
| 2026-04-29 19:42 | 64.22839 | -25.51293 | 31373 ft | 512 kts | 119° |
| 2026-04-29 19:42 | 64.21494 | -25.43916 | 30812 ft | 507 kts | 120° |
| 2026-04-29 19:43 | 64.20139 | -25.36530 | 30279 ft | 503 kts | 120° |
| 2026-04-29 19:43 | 64.18778 | -25.29220 | 29681 ft | 498 kts | 122° |
| 2026-04-29 19:43 | 64.17396 | -25.21974 | 29074 ft | 493 kts | 122° |
| 2026-04-29 19:43 | 64.16046 | -25.14913 | 28471 ft | 490 kts | 122° |
| 2026-04-29 19:44 | 64.14692 | -25.07788 | 27848 ft | 486 kts | 122° |
| 2026-04-29 19:44 | 64.13358 | -25.00741 | 27214 ft | 482 kts | 122° |
| 2026-04-29 19:44 | 64.12045 | -24.93780 | 26490 ft | 480 kts | 121° |
| 2026-04-29 19:44 | 64.10995 | -24.86429 | 25753 ft | 495 kts | 110° |
| 2026-04-29 19:45 | 64.10572 | -24.78627 | 25028 ft | 503 kts | 100° |
| 2026-04-29 19:45 | 64.10516 | -24.70625 | 24281 ft | 504 kts | 96° |
| 2026-04-29 19:45 | 64.10577 | -24.62777 | 23521 ft | 501 kts | 96° |
| 2026-04-29 19:45 | 64.10647 | -24.54881 | 22762 ft | 498 kts | 96° |
| 2026-04-29 19:46 | 64.10689 | -24.47053 | 22033 ft | 493 kts | 96° |
| 2026-04-29 19:46 | 64.10699 | -24.39326 | 21364 ft | 487 kts | 96° |
| 2026-04-29 19:46 | 64.10683 | -24.31661 | 20704 ft | 481 kts | 98° |
| 2026-04-29 19:46 | 64.10623 | -24.24045 | 20037 ft | 476 kts | 98° |
| 2026-04-29 19:47 | 64.10550 | -24.16518 | 19370 ft | 471 kts | 98° |
| 2026-04-29 19:47 | 64.10482 | -24.09170 | 18703 ft | 466 kts | 98° |
| 2026-04-29 19:47 | 64.10419 | -24.01762 | 18036 ft | 462 kts | 98° |
| 2026-04-29 19:47 | 64.10362 | -23.94530 | 17374 ft | 457 kts | 97° |
| 2026-04-29 19:48 | 64.10304 | -23.87351 | 16713 ft | 453 kts | 97° |
| 2026-04-29 19:48 | 64.10266 | -23.82553 | 16268 ft | 450 kts | 97° |
| 2026-04-29 19:48 | 64.10187 | -23.73087 | 15387 ft | 444 kts | 97° |
| 2026-04-29 19:48 | 64.10123 | -23.66173 | 14732 ft | 440 kts | 97° |
| 2026-04-29 19:49 | 64.10058 | -23.59219 | 14066 ft | 436 kts | 97° |
| 2026-04-29 19:49 | 64.09989 | -23.52359 | 13417 ft | 432 kts | 96° |
| 2026-04-29 19:49 | 64.09917 | -23.45492 | 12748 ft | 428 kts | 96° |
| 2026-04-29 19:49 | 64.09843 | -23.38838 | 12100 ft | 424 kts | 96° |
| 2026-04-29 19:50 | 64.09761 | -23.32129 | 11438 ft | 419 kts | 97° |
| 2026-04-29 19:50 | 64.09654 | -23.25569 | 10777 ft | 414 kts | 97° |
| 2026-04-29 19:50 | 64.09544 | -23.18986 | 10107 ft | 410 kts | 97° |
| 2026-04-29 19:50 | 64.09445 | -23.12531 | 9505 ft | 404 kts | 97° |
| 2026-04-29 19:51 | 64.09385 | -23.06371 | 9609 ft | 379 kts | 96° |
| 2026-04-29 19:51 | 64.09351 | -23.00576 | 9869 ft | 352 kts | 96° |
| 2026-04-29 19:51 | 64.09315 | -22.95114 | 9890 ft | 333 kts | 97° |
| 2026-04-29 19:51 | 64.09274 | -22.89965 | 9859 ft | 318 kts | 97° |
| 2026-04-29 19:52 | 64.09227 | -22.85003 | 9416 ft | 314 kts | 97° |
| 2026-04-29 19:52 | 64.09176 | -22.80036 | 8868 ft | 317 kts | 97° |
| 2026-04-29 19:52 | 64.09126 | -22.75023 | 8336 ft | 314 kts | 97° |
| 2026-04-29 19:52 | 64.09080 | -22.70115 | 7896 ft | 308 kts | 97° |
| 2026-04-29 19:53 | 64.09033 | -22.65280 | 7487 ft | 300 kts | 97° |
| 2026-04-29 19:53 | 64.08983 | -22.60552 | 7078 ft | 293 kts | 96° |
| 2026-04-29 19:53 | 64.08933 | -22.55984 | 6678 ft | 287 kts | 96° |
| 2026-04-29 19:53 | 64.08882 | -22.51455 | 6273 ft | 282 kts | 96° |
| 2026-04-29 19:54 | 64.08779 | -22.42679 | 5466 ft | 273 kts | 96° |
| 2026-04-29 19:54 | 64.08727 | -22.38428 | 5065 ft | 269 kts | 96° |
| 2026-04-29 19:54 | 64.08675 | -22.34149 | 4657 ft | 266 kts | 97° |
| 2026-04-29 19:55 | 64.08603 | -22.30023 | 4362 ft | 259 kts | 98° |
| 2026-04-29 19:55 | 64.08497 | -22.25915 | 4078 ft | 255 kts | 106° |
| 2026-04-29 19:55 | 64.07800 | -22.22443 | 3762 ft | 237 kts | 140° |
| 2026-04-29 19:55 | 64.06460 | -22.20616 | 3451 ft | 221 kts | 173° |
| 2026-04-29 19:56 | 64.04949 | -22.20282 | 3144 ft | 217 kts | 186° |
| 2026-04-29 19:56 | 64.03471 | -22.20688 | 2832 ft | 215 kts | 194° |
| 2026-04-29 19:56 | 64.02023 | -22.21509 | 2542 ft | 212 kts | 198° |
| 2026-04-29 19:56 | 64.00644 | -22.22490 | 2438 ft | 209 kts | 200° |
| 2026-04-29 19:57 | 63.99323 | -22.23806 | 2406 ft | 204 kts | 220° |
| 2026-04-29 19:57 | 63.98759 | -22.25420 | 2403 ft | 198 kts | 244° |
| 2026-04-29 19:57 | 63.98548 | -22.29571 | 2410 ft | 199 kts | 263° |
| 2026-04-29 19:57 | 63.98518 | -22.32713 | 2404 ft | 198 kts | 264° |
| 2026-04-29 19:58 | 63.98505 | -22.35819 | 2397 ft | 198 kts | 263° |
| 2026-04-29 19:58 | 63.98483 | -22.39013 | 2122 ft | 203 kts | 264° |
| 2026-04-29 19:58 | 63.98479 | -22.42270 | 1744 ft | 205 kts | 265° |
| 2026-04-29 19:58 | 63.98480 | -22.42648 | 1708 ft | 204 kts | 265° |
| 2026-04-29 19:59 | 63.98481 | -22.43639 | 1578 ft | 203 kts | 265° |
| 2026-04-29 19:59 | 63.98488 | -22.46698 | 1324 ft | 182 kts | 265° |
| 2026-04-29 19:59 | 63.98492 | -22.49446 | 1110 ft | 164 kts | 264° |
| 2026-04-29 20:00 | 63.98495 | -22.51873 | 867 ft | 147 kts | 264° |
| 2026-04-29 20:00 | 63.98497 | -22.54064 | 669 ft | 134 kts | 263° |
| 2026-04-29 20:00 | 63.98498 | -22.56170 | 497 ft | 129 kts | 263° |
| 2026-04-29 20:00 | 63.98497 | -22.58235 | 291 ft | 133 kts | 264° |
| 2026-04-29 20:01 | 63.98505 | -22.60325 | 176 ft | 128 kts | 264° |
| 2026-04-29 20:01 | 63.98503 | -22.62122 | 157 ft | 91 kts | 269° |
| 2026-04-29 20:01 | 63.98506 | -22.63226 | 144 ft | 53 kts | 269° |
| 2026-04-29 20:01 | 63.98543 | -22.63774 | 141 ft | 28 kts | 294° |
| 2026-04-29 20:02 | 63.98636 | -22.64101 | 141 ft | 13 kts | 326° |
| 2026-04-29 20:02 | 63.98700 | -22.64153 | 141 ft | 7 kts | 352° |
| 2026-04-29 20:02 | 63.98762 | -22.64162 | 141 ft | 9 kts | 360° |
| 2026-04-29 20:02 | 63.98806 | -22.64163 | 141 ft | 4 kts | 1° |
| 2026-04-29 20:03 | 63.98848 | -22.64106 | 141 ft | 11 kts | 63° |
| 2026-04-29 20:03 | 63.98854 | -22.63935 | 142 ft | 9 kts | 91° |
| 2026-04-29 20:03 | 63.98853 | -22.63794 | 143 ft | 9 kts | 91° |
| 2026-04-29 20:03 | 63.98853 | -22.63606 | 143 ft | 13 kts | 91° |
| 2026-04-29 20:04 | 63.98853 | -22.63363 | 144 ft | 17 kts | 90° |
| 2026-04-29 20:04 | 63.98853 | -22.63053 | 144 ft | 20 kts | 91° |
| 2026-04-29 20:04 | 63.98876 | -22.62890 | 144 ft | 8 kts | 22° |
| 2026-04-29 20:04 | 63.98943 | -22.62845 | 144 ft | 12 kts | 17° |
| 2026-04-29 20:05 | 63.99042 | -22.62779 | 144 ft | 18 kts | 17° |
| 2026-04-29 20:05 | 63.99173 | -22.62688 | 144 ft | 18 kts | 13° |
| 2026-04-29 20:05 | 63.99283 | -22.62740 | 144 ft | 15 kts | 346° |
| 2026-04-29 20:05 | 63.99327 | -22.62764 | 144 ft | 4 kts | 304° |
| 2026-04-29 20:06 | 63.99332 | -22.62798 | 144 ft | 1 kts | 272° |
| 2026-04-29 20:06 | 63.99332 | -22.62839 | 144 ft | 3 kts | 271° |
| 2026-04-29 20:06 | 63.99332 | -22.62885 | 144 ft | 1 kts | 270° |
| 2026-04-29 20:06 | 63.99332 | -22.62898 | 144 ft | 0 kts | 270° |
| 2026-04-29 20:07 | 63.99332 | -22.62904 | 144 ft | 0 kts | 271° |
| 2026-04-29 20:07 | 63.99332 | -22.62907 | 144 ft | 0 kts | 270° |